Time;durP1;ratioP1;P1;durP2;ratioP2;P2;SDS_P1;SDS_P2;PMS_P1;PMS_P2;Temp;Humidity;BMP_temperature;BMP_pressure;BME280_temperature;BME280_humidity;BME280_pressure;Samples;Min_cycle;Max_cycle;Signal;HPM_P1;HPM_P2
2022/07/14 00:01:51;;;;;;;2.37;2.17;;;23.70;99.70;;;;;;5075071;28;20447;-56
2022/07/14 00:04:17;;;;;;;2.50;2.30;;;23.70;99.70;;;;;;5075309;28;20450;-56
2022/07/14 00:06:45;;;;;;;3.53;2.50;;;23.70;99.80;;;;;;5074973;28;20934;-58
2022/07/14 00:09:11;;;;;;;3.30;2.13;;;23.70;99.80;;;;;;5075053;28;20447;-58
2022/07/14 00:11:38;;;;;;;2.20;2.10;;;23.70;99.90;;;;;;5075015;28;20453;-57
2022/07/14 00:14:04;;;;;;;3.40;3.00;;;23.70;99.90;;;;;;5074855;28;20454;-57
2022/07/14 00:16:31;;;;;;;2.43;2.23;;;23.60;99.90;;;;;;5074687;28;20479;-57
2022/07/14 00:18:57;;;;;;;2.60;2.40;;;23.70;99.90;;;;;;5074763;28;20487;-57
2022/07/14 00:21:24;;;;;;;2.77;2.57;;;23.60;99.90;;;;;;5074848;28;20453;-57
2022/07/14 00:23:52;;;;;;;2.83;2.40;;;23.60;99.90;;;;;;5074808;28;20443;-56
2022/07/14 00:26:18;;;;;;;4.30;2.67;;;23.60;99.90;;;;;;5074745;28;20447;-57
2022/07/14 00:28:45;;;;;;;4.07;2.47;;;23.60;99.90;;;;;;5074622;28;20448;-57
2022/07/14 00:31:12;;;;;;;4.30;2.90;;;23.50;99.90;;;;;;5074633;28;20455;-57
2022/07/14 00:33:39;;;;;;;2.80;2.70;;;23.40;99.90;;;;;;5074729;28;20443;-56
2022/07/14 00:36:07;;;;;;;3.90;2.70;;;23.30;99.90;;;;;;5074499;28;20846;-57
2022/07/14 00:38:34;;;;;;;4.73;2.50;;;23.10;99.90;;;;;;5074501;28;20542;-57
2022/07/14 00:41:02;;;;;;;2.30;2.20;;;23.00;99.90;;;;;;5074448;28;20444;-57
2022/07/14 00:43:28;;;;;;;2.60;2.43;;;22.90;99.90;;;;;;5074293;28;20486;-57
2022/07/14 00:45:55;;;;;;;2.70;2.23;;;22.80;99.90;;;;;;5074403;28;20454;-57
2022/07/14 00:48:22;;;;;;;2.17;2.07;;;22.80;99.90;;;;;;5074434;28;20452;-56
2022/07/14 00:50:49;;;;;;;2.80;2.37;;;22.80;99.90;;;;;;5074403;28;20478;-58
2022/07/14 00:53:16;;;;;;;3.30;3.00;;;22.70;99.90;;;;;;5074242;28;20814;-57
2022/07/14 00:55:43;;;;;;;3.00;2.80;;;22.70;99.90;;;;;;5074108;28;20522;-57
2022/07/14 00:58:12;;;;;;;2.70;2.50;;;22.60;99.90;;;;;;5073926;28;20463;-57
2022/07/14 01:00:39;;;;;;;3.27;2.57;;;22.60;99.90;;;;;;5074240;28;20526;-58
2022/07/14 01:03:06;;;;;;;3.30;2.33;;;22.60;99.90;;;;;;5074073;28;20443;-57
2022/07/14 01:05:33;;;;;;;2.80;2.60;;;22.60;99.90;;;;;;5073999;28;20451;-57
2022/07/14 01:08:00;;;;;;;3.40;2.63;;;22.70;99.90;;;;;;5073891;28;20455;-57
2022/07/14 01:10:26;;;;;;;2.73;2.50;;;22.70;99.90;;;;;;5073854;28;20776;-59
2022/07/14 01:12:53;;;;;;;2.83;2.63;;;22.60;99.90;;;;;;5073699;28;20443;-57
2022/07/14 01:15:21;;;;;;;2.67;2.57;;;22.60;99.90;;;;;;5073890;28;20449;-57
2022/07/14 01:17:48;;;;;;;3.13;2.93;;;22.50;99.90;;;;;;5073798;28;20853;-57
2022/07/14 01:20:15;;;;;;;2.40;2.30;;;22.50;99.90;;;;;;5073620;28;20451;-57
2022/07/14 01:22:46;;;;;;;2.90;2.70;;;22.40;99.90;;;;;;5073591;28;20453;-58
2022/07/14 01:25:14;;;;;;;2.30;2.20;;;22.30;99.90;;;;;;5073572;28;20452;-57
2022/07/14 01:27:41;;;;;;;2.57;2.37;;;22.30;99.90;;;;;;5073647;28;20451;-57
2022/07/14 01:30:08;;;;;;;2.40;2.30;;;22.30;99.90;;;;;;5073609;28;20448;-58
2022/07/14 01:32:35;;;;;;;3.07;2.67;;;22.30;99.90;;;;;;5073428;28;20447;-56
2022/07/14 01:35:01;;;;;;;5.20;2.37;;;22.30;99.90;;;;;;5073379;28;20494;-57
2022/07/14 01:37:28;;;;;;;2.53;2.33;;;22.20;99.90;;;;;;5073180;28;20512;-57
2022/07/14 01:39:56;;;;;;;2.43;2.33;;;22.20;99.90;;;;;;5073191;28;20447;-57
2022/07/14 01:42:23;;;;;;;2.50;2.40;;;22.20;99.90;;;;;;5073164;28;20974;-56
2022/07/14 01:44:49;;;;;;;3.30;3.00;;;22.10;99.90;;;;;;5073404;28;20448;-56
2022/07/14 01:47:16;;;;;;;4.20;2.97;;;22.00;99.90;;;;;;5073278;28;20542;-57
2022/07/14 01:49:42;;;;;;;7.50;3.27;;;22.00;99.90;;;;;;5073244;28;20954;-56
2022/07/14 01:52:09;;;;;;;2.40;2.30;;;22.00;99.90;;;;;;5073098;28;20475;-58
2022/07/14 01:54:35;;;;;;;2.27;2.13;;;22.00;99.90;;;;;;5073317;28;20483;-55
2022/07/14 01:57:06;;;;;;;4.17;2.10;;;21.90;99.90;;;;;;5072956;28;20845;-57
2022/07/14 01:59:32;;;;;;;2.43;1.97;;;21.80;99.90;;;;;;5073204;28;20452;-57
2022/07/14 02:01:59;;;;;;;2.93;2.13;;;21.80;99.90;;;;;;5073094;28;20451;-57
2022/07/14 02:04:25;;;;;;;2.40;2.20;;;21.80;99.90;;;;;;5072997;28;20450;-57
2022/07/14 02:06:55;;;;;;;1.93;1.73;;;21.70;99.90;;;;;;5072882;28;20451;-57
2022/07/14 02:09:22;;;;;;;2.50;1.90;;;21.50;99.90;;;;;;5073143;28;20500;-57
2022/07/14 02:14:35;;;;;;;2.03;1.93;;;21.50;99.90;;;;;;5072934;28;20434;-57
2022/07/14 02:17:02;;;;;;;3.40;2.10;;;21.40;99.90;;;;;;5072825;28;20578;-57
2022/07/14 02:19:28;;;;;;;2.97;1.93;;;21.40;99.90;;;;;;5075077;28;20783;-57
2022/07/14 02:21:55;;;;;;;2.17;1.97;;;21.40;99.90;;;;;;5079626;28;20551;-57
2022/07/14 02:24:23;;;;;;;1.60;1.50;;;21.30;99.90;;;;;;5079644;28;20447;-56
2022/07/14 02:26:51;;;;;;;2.40;1.67;;;21.30;99.90;;;;;;5079570;28;20451;-57
2022/07/14 02:29:18;;;;;;;2.20;2.00;;;21.30;99.90;;;;;;5079384;28;20450;-56
2022/07/14 02:31:46;;;;;;;3.37;1.70;;;21.20;99.90;;;;;;5079392;28;20448;-56
2022/07/14 02:34:13;;;;;;;2.60;1.80;;;21.10;99.90;;;;;;5079296;28;20450;-57
2022/07/14 02:36:39;;;;;;;2.90;1.80;;;21.00;99.90;;;;;;5079407;28;20482;-57
2022/07/14 02:39:06;;;;;;;2.10;1.90;;;21.00;99.90;;;;;;5079494;28;20450;-57
2022/07/14 02:41:33;;;;;;;2.23;1.60;;;21.00;99.90;;;;;;5079390;28;20446;-56
2022/07/14 02:43:59;;;;;;;3.07;1.90;;;20.90;99.90;;;;;;5079350;28;20799;-57
2022/07/14 02:46:26;;;;;;;2.10;1.73;;;20.90;99.90;;;;;;5079217;28;20480;-58
2022/07/14 02:48:53;;;;;;;4.10;1.60;;;20.90;99.90;;;;;;5079412;28;20479;-56
2022/07/14 02:51:20;;;;;;;3.20;1.40;;;20.90;99.90;;;;;;5079367;28;20449;-56
2022/07/14 02:53:47;;;;;;;2.70;1.90;;;20.80;99.90;;;;;;5079267;28;20897;-55
2022/07/14 02:56:14;;;;;;;2.60;1.60;;;20.40;99.90;;;;;;5078963;28;20493;-57
2022/07/14 02:58:40;;;;;;;3.37;2.10;;;20.40;99.90;;;;;;5079085;28;20453;-57
2022/07/14 03:01:08;;;;;;;2.00;1.87;;;20.50;99.90;;;;;;5079038;28;20447;-57
2022/07/14 03:03:35;;;;;;;2.80;1.90;;;20.40;99.90;;;;;;5079331;28;20539;-56
2022/07/14 03:06:09;;;;;;;2.50;1.97;;;20.30;99.90;;;;;;5079224;28;20459;-56
2022/07/14 03:08:37;;;;;;;2.57;1.83;;;20.40;99.90;;;;;;5079161;28;20442;-56
2022/07/14 03:11:04;;;;;;;3.63;2.27;;;20.40;99.90;;;;;;5079051;28;20447;-56
2022/07/14 03:13:30;;;;;;;3.33;1.63;;;20.20;99.90;;;;;;5079432;28;20810;-55
2022/07/14 03:15:57;;;;;;;2.70;1.70;;;20.10;99.90;;;;;;5079213;28;20454;-56
2022/07/14 03:18:24;;;;;;;2.60;2.40;;;20.20;99.90;;;;;;5078990;28;20504;-56
2022/07/14 03:20:50;;;;;;;4.03;1.97;;;20.10;99.90;;;;;;5079084;28;20479;-56
2022/07/14 03:23:18;;;;;;;3.83;2.13;;;20.00;99.90;;;;;;5078978;28;20454;-56
2022/07/14 03:25:45;;;;;;;3.77;2.00;;;19.90;99.90;;;;;;5078887;28;20439;-56
2022/07/14 03:28:13;;;;;;;3.10;1.90;;;19.80;99.90;;;;;;5078823;28;20455;-50
2022/07/14 03:30:39;;;;;;;3.40;2.10;;;19.40;99.90;;;;;;5077301;28;20455;-55
2022/07/14 03:33:06;;;;;;;3.17;1.87;;;19.40;99.90;;;;;;5075565;28;20504;-55
2022/07/14 03:35:33;;;;;;;4.33;2.33;;;19.60;99.90;;;;;;5075726;28;20813;-52
2022/07/14 03:38:00;;;;;;;3.13;1.90;;;19.20;99.90;;;;;;5075530;28;20483;-54
2022/07/14 03:40:27;;;;;;;5.07;2.03;;;19.30;99.90;;;;;;5075425;28;20452;-58
2022/07/14 03:42:54;;;;;;;3.93;2.73;;;19.40;99.90;;;;;;5075723;28;20453;-56
2022/07/14 03:45:20;;;;;;;6.03;2.27;;;19.50;99.90;;;;;;5075644;28;20486;-54
2022/07/14 03:47:47;;;;;;;2.43;2.23;;;19.50;99.90;;;;;;5075450;28;20447;-54
2022/07/14 03:50:13;;;;;;;3.83;2.13;;;19.40;99.90;;;;;;5075446;28;20538;-55
2022/07/14 03:52:40;;;;;;;4.70;2.57;;;19.50;99.90;;;;;;5075343;28;20894;-56
2022/07/14 03:55:07;;;;;;;5.67;2.40;;;19.60;99.90;;;;;;5075228;28;20447;-56
2022/07/14 03:57:35;;;;;;;5.20;2.57;;;19.60;99.90;;;;;;5075027;28;20487;-55
2022/07/14 04:00:01;;;;;;;3.60;2.20;;;19.60;99.90;;;;;;5075306;28;20546;-55
2022/07/14 04:02:28;;;;;;;4.43;2.63;;;19.50;99.90;;;;;;5075127;28;20483;-55
2022/07/14 04:04:54;;;;;;;3.57;1.90;;;19.40;99.90;;;;;;5075289;28;20506;-56
2022/07/14 04:07:21;;;;;;;3.20;2.60;;;19.40;99.90;;;;;;5075534;28;20513;-54
2022/07/14 04:09:49;;;;;;;6.60;2.63;;;19.50;99.90;;;;;;5075083;28;20450;-55
2022/07/14 04:12:16;;;;;;;5.83;2.70;;;19.50;99.90;;;;;;5075083;28;20443;-57
2022/07/14 04:14:44;;;;;;;5.10;2.23;;;19.50;99.90;;;;;;5074785;28;20957;-54
2022/07/14 04:17:10;;;;;;;2.70;2.10;;;19.60;99.90;;;;;;5074636;28;21056;-55
2022/07/14 04:19:37;;;;;;;4.17;2.37;;;19.60;99.90;;;;;;5074872;28;20448;-54
2022/07/14 04:22:04;;;;;;;7.30;2.20;;;19.60;99.90;;;;;;5074763;28;20454;-54
2022/07/14 04:24:30;;;;;;;3.43;2.07;;;19.60;99.90;;;;;;5074512;28;20841;-51
2022/07/14 04:26:56;;;;;;;8.53;2.00;;;19.60;99.90;;;;;;5074736;28;20450;-53
2022/07/14 04:29:23;;;;;;;5.43;2.73;;;19.50;99.90;;;;;;5074686;28;20451;-56
2022/07/14 04:31:51;;;;;;;5.27;2.30;;;19.40;99.90;;;;;;5074612;28;20444;-55
2022/07/14 04:34:18;;;;;;;4.90;1.80;;;19.30;99.90;;;;;;5074490;28;20462;-57
2022/07/14 04:36:45;;;;;;;4.67;1.77;;;19.40;99.90;;;;;;5074346;28;20954;-55
2022/07/14 04:39:11;;;;;;;4.80;1.73;;;19.50;99.90;;;;;;5074817;28;20879;-53
2022/07/14 04:41:38;;;;;;;10.20;2.10;;;19.50;99.90;;;;;;5074358;28;20542;-57
2022/07/14 04:44:05;;;;;;;6.83;2.00;;;19.50;99.90;;;;;;5074077;28;20447;-57
2022/07/14 04:46:31;;;;;;;6.30;2.80;;;19.00;99.90;;;;;;5074235;28;20451;-57
2022/07/14 04:54:27;;;;;;;4.67;2.10;;;19.40;99.90;;;;;;5074127;28;20439;-56
2022/07/14 04:56:54;;;;;;;10.43;2.00;;;19.40;99.90;;;;;;5073849;28;20505;-56
2022/07/14 04:59:20;;;;;;;8.77;2.80;;;19.10;99.90;;;;;;5074018;28;20581;-57
2022/07/14 05:01:47;;;;;;;6.03;2.47;;;19.00;99.90;;;;;;5073835;28;20451;-56
2022/07/14 05:04:15;;;;;;;5.23;2.40;;;19.10;99.90;;;;;;5074043;28;20443;-56
2022/07/14 05:06:41;;;;;;;6.60;2.43;;;19.10;99.90;;;;;;5073837;28;20444;-57
2022/07/14 05:09:08;;;;;;;5.20;2.30;;;19.10;99.90;;;;;;5073865;28;20475;-57
2022/07/14 05:11:34;;;;;;;7.50;2.60;;;19.00;99.90;;;;;;5073714;28;20448;-56
2022/07/14 05:14:01;;;;;;;10.30;2.60;;;18.90;99.90;;;;;;5073606;28;20447;-56
2022/07/14 05:16:27;;;;;;;4.63;1.80;;;19.00;99.90;;;;;;5073523;28;20447;-57
2022/07/14 05:18:54;;;;;;;5.30;1.60;;;18.60;99.90;;;;;;5073689;28;20562;-56
2022/07/14 05:21:21;;;;;;;6.20;2.20;;;18.60;99.90;;;;;;5073705;28;20542;-57
2022/07/14 05:23:48;;;;;;;5.77;2.17;;;19.00;99.90;;;;;;5073562;28;20454;-58
2022/07/14 05:26:15;;;;;;;6.83;2.20;;;19.00;99.90;;;;;;5073437;28;20814;-56
2022/07/14 05:28:42;;;;;;;7.87;2.30;;;19.10;99.90;;;;;;5073423;28;20458;-57
2022/07/14 05:31:08;;;;;;;7.30;2.20;;;19.30;99.90;;;;;;5073275;28;20455;-57
2022/07/14 05:33:35;;;;;;;5.57;2.03;;;19.50;99.90;;;;;;5073518;28;20721;-58
2022/07/14 05:36:02;;;;;;;6.43;2.67;;;19.50;99.90;;;;;;5073249;28;20965;-54
2022/07/14 05:38:31;;;;;;;3.93;2.00;;;19.10;99.90;;;;;;5073206;28;20486;-57
2022/07/14 05:40:59;;;;;;;11.10;2.23;;;18.90;99.90;;;;;;5073240;28;20455;-57
2022/07/14 05:43:26;;;;;;;5.10;2.23;;;19.10;99.90;;;;;;5073095;28;20546;-56
2022/07/14 05:45:52;;;;;;;5.47;2.53;;;19.40;99.90;;;;;;5073134;28;20994;-57
2022/07/14 05:48:19;;;;;;;4.23;1.90;;;19.50;99.90;;;;;;5073242;28;20454;-56
2022/07/14 05:50:45;;;;;;;7.33;2.07;;;19.70;99.90;;;;;;5073169;28;20447;-57
2022/07/14 05:53:11;;;;;;;5.03;1.70;;;19.70;99.90;;;;;;5073078;28;20914;-56
2022/07/14 05:55:39;;;;;;;7.23;2.40;;;19.30;99.90;;;;;;5072313;28;20448;-56
2022/07/14 05:58:06;;;;;;;5.07;2.20;;;19.70;99.90;;;;;;5072687;28;20487;-54
2022/07/14 06:00:32;;;;;;;6.10;2.27;;;19.90;99.90;;;;;;5073166;28;20543;-57
2022/07/14 06:02:59;;;;;;;9.00;2.27;;;19.90;99.90;;;;;;5073014;28;20964;-57
2022/07/14 06:05:25;;;;;;;5.67;2.13;;;20.00;99.90;;;;;;5072784;28;20967;-53
2022/07/14 06:07:52;;;;;;;4.00;2.00;;;20.00;99.90;;;;;;5073003;28;20558;-55
2022/07/14 06:10:18;;;;;;;9.00;2.60;;;20.00;99.90;;;;;;5072969;28;20513;-53
2022/07/14 06:12:47;;;;;;;5.23;2.07;;;19.30;99.90;;;;;;5072755;28;20458;-54
2022/07/14 06:15:14;;;;;;;5.83;2.37;;;19.50;99.90;;;;;;5072910;28;20451;-55
2022/07/14 06:17:40;;;;;;;6.17;2.10;;;19.80;99.90;;;;;;5072660;28;20471;-52
2022/07/14 06:20:07;;;;;;;13.83;2.40;;;19.80;99.90;;;;;;5072850;28;20500;-55
2022/07/14 06:22:35;;;;;;;6.47;2.50;;;20.00;99.90;;;;;;5072769;28;20453;-53
2022/07/14 06:25:02;;;;;;;6.27;2.57;;;19.90;99.90;;;;;;5072608;28;20938;-55
2022/07/14 06:27:28;;;;;;;4.50;2.30;;;19.70;99.90;;;;;;5072658;28;20538;-54
2022/07/14 06:29:56;;;;;;;4.67;2.50;;;19.90;99.90;;;;;;5072910;28;20447;-56
2022/07/14 06:32:24;;;;;;;5.23;2.17;;;20.30;99.90;;;;;;5072787;28;20542;-52
2022/07/14 06:34:50;;;;;;;7.83;3.40;;;20.50;99.90;;;;;;5072643;28;20451;-52
2022/07/14 06:37:17;;;;;;;6.57;1.97;;;20.70;99.90;;;;;;5072468;28;20891;-54
2022/07/14 06:39:43;;;;;;;7.40;2.03;;;20.80;99.90;;;;;;5072577;28;20447;-55
2022/07/14 06:42:10;;;;;;;5.87;1.73;;;20.40;99.90;;;;;;5072488;28;20448;-55
2022/07/14 06:44:36;;;;;;;5.43;2.00;;;20.00;99.90;;;;;;5072608;28;20550;-56
2022/07/14 06:47:04;;;;;;;5.30;1.93;;;20.30;99.90;;;;;;5072590;28;20454;-53
2022/07/14 06:49:31;;;;;;;3.83;1.80;;;20.40;99.90;;;;;;5072627;28;20894;-55
2022/07/14 06:51:57;;;;;;;10.33;2.50;;;20.50;99.90;;;;;;5072522;28;20455;-53
2022/07/14 06:54:25;;;;;;;4.93;1.87;;;20.60;99.90;;;;;;5072536;28;20447;-53
2022/07/14 06:56:51;;;;;;;3.53;1.80;;;20.60;99.90;;;;;;5072378;28;20471;-56
2022/07/14 06:59:18;;;;;;;6.00;1.83;;;20.80;99.90;;;;;;5072443;28;20482;-56
2022/07/14 07:01:44;;;;;;;5.30;2.00;;;21.00;99.90;;;;;;5072278;28;21004;-55
2022/07/14 07:04:12;;;;;;;5.47;1.70;;;21.20;99.90;;;;;;5072362;28;20447;-56
2022/07/14 07:06:44;;;;;;;7.53;2.43;;;21.20;99.90;;;;;;5074936;28;20541;-52
2022/07/14 07:09:11;;;;;;;4.40;1.90;;;21.20;99.90;;;;;;5076294;28;20470;-55
2022/07/14 07:11:38;;;;;;;5.70;2.30;;;20.70;99.90;;;;;;5076136;28;20443;-54
2022/07/14 07:14:04;;;;;;;7.90;2.53;;;20.80;99.90;;;;;;5076004;28;20443;-56
2022/07/14 07:16:31;;;;;;;7.00;1.90;;;21.10;99.90;;;;;;5076052;28;20454;-54
2022/07/14 07:18:57;;;;;;;5.10;2.10;;;21.10;99.90;;;;;;5075873;28;20876;-56
2022/07/14 07:21:25;;;;;;;6.70;1.73;;;20.60;99.90;;;;;;5075751;28;20538;-51
2022/07/14 07:23:54;;;;;;;5.50;2.20;;;20.40;99.90;;;;;;5075742;28;20547;-60
2022/07/14 07:26:24;;;;;;;5.00;2.17;;;20.70;99.90;;;;;;5075842;28;20435;-57
2022/07/14 07:28:51;;;;;;;5.33;2.03;;;20.40;99.90;;;;;;5075788;28;20537;-58
2022/07/14 07:31:18;;;;;;;8.80;2.30;;;20.20;99.90;;;;;;5075594;28;20449;-58
2022/07/14 07:33:45;;;;;;;7.17;1.60;;;20.00;99.90;;;;;;5075450;28;20443;-59
2022/07/14 07:36:11;;;;;;;4.67;1.80;;;20.30;99.90;;;;;;5075491;28;20443;-61
2022/07/14 07:38:39;;;;;;;12.80;2.60;;;20.80;99.90;;;;;;5074740;28;20574;-61
2022/07/14 07:41:06;;;;;;;7.50;1.93;;;20.60;99.90;;;;;;5075645;28;20483;-58
2022/07/14 07:43:32;;;;;;;5.53;1.50;;;20.90;99.90;;;;;;5075541;28;20452;-58
2022/07/14 07:45:59;;;;;;;9.90;2.20;;;20.80;99.90;;;;;;5075425;28;20447;-58
2022/07/14 07:48:26;;;;;;;4.17;1.70;;;20.70;99.90;;;;;;5075464;28;20455;-57
2022/07/14 07:50:52;;;;;;;4.10;1.40;;;21.00;99.90;;;;;;5075405;28;21021;-58
2022/07/14 07:53:19;;;;;;;6.60;1.77;;;21.30;99.90;;;;;;5075505;28;20535;-57
2022/07/14 07:55:47;;;;;;;2.80;1.63;;;21.10;99.90;;;;;;5075353;28;20852;-58
2022/07/14 07:58:13;;;;;;;6.37;1.73;;;21.10;99.90;;;;;;5074908;28;20994;-58
2022/07/14 08:00:40;;;;;;;5.30;1.70;;;21.20;99.90;;;;;;5075055;28;20452;-58
2022/07/14 08:03:06;;;;;;;3.00;1.30;;;21.00;99.90;;;;;;5075079;28;20443;-56
2022/07/14 08:05:34;;;;;;;7.90;1.93;;;20.80;99.90;;;;;;5074562;28;20443;-57
2022/07/14 08:08:00;;;;;;;3.03;2.00;;;20.90;99.90;;;;;;5074710;28;20471;-57
2022/07/14 08:10:27;;;;;;;2.30;1.67;;;21.00;99.90;;;;;;5074694;28;20446;-55
2022/07/14 08:12:55;;;;;;;2.40;1.67;;;21.10;99.90;;;;;;5074891;28;20454;-57
2022/07/14 08:15:22;;;;;;;7.87;2.13;;;20.80;99.90;;;;;;5074870;28;20458;-56
2022/07/14 08:17:48;;;;;;;6.13;1.90;;;21.10;99.90;;;;;;5073468;28;20577;-59
2022/07/14 08:20:15;;;;;;;5.23;1.63;;;21.60;99.90;;;;;;5074780;28;20465;-61
2022/07/14 08:22:41;;;;;;;3.77;1.60;;;21.90;99.90;;;;;;5074828;28;20477;-61
2022/07/14 08:25:10;;;;;;;6.73;2.10;;;21.90;99.90;;;;;;5074482;28;20486;-58
2022/07/14 08:27:36;;;;;;;2.97;1.30;;;22.00;99.90;;;;;;5074486;28;20973;-59
2022/07/14 08:30:05;;;;;;;2.40;1.43;;;21.60;99.90;;;;;;5074558;28;20447;-59
2022/07/14 08:32:39;;;;;;;4.40;1.40;;;22.00;99.90;;;;;;5074491;28;20448;-59
2022/07/14 08:35:08;;;;;;;4.00;1.30;;;22.00;99.90;;;;;;5074264;28;20446;-53
2022/07/14 08:37:35;;;;;;;5.00;1.37;;;21.90;99.90;;;;;;5074475;28;20443;-49
2022/07/14 08:40:02;;;;;;;4.27;1.50;;;22.30;99.90;;;;;;5074155;28;20479;-60
2022/07/14 08:42:29;;;;;;;2.07;1.40;;;22.70;99.90;;;;;;5074191;28;20977;-59
2022/07/14 08:44:56;;;;;;;4.10;1.90;;;22.90;99.90;;;;;;5073922;28;20534;-58
2022/07/14 08:47:25;;;;;;;3.47;1.30;;;23.10;99.90;;;;;;5074225;28;20444;-56
2022/07/14 08:49:52;;;;;;;4.00;1.33;;;23.20;99.90;;;;;;5074048;28;20818;-59
2022/07/14 08:52:18;;;;;;;5.03;1.60;;;23.40;99.90;;;;;;5074067;28;20818;-58
2022/07/14 08:54:46;;;;;;;2.73;1.40;;;23.40;99.90;;;;;;5074025;28;20451;-59
2022/07/14 08:57:12;;;;;;;4.50;1.57;;;23.10;99.90;;;;;;5073747;28;20483;-59
2022/07/14 08:59:40;;;;;;;2.23;1.07;;;23.40;99.90;;;;;;5073990;28;20483;-59
2022/07/14 09:02:07;;;;;;;3.50;1.33;;;23.70;98.90;;;;;;5073315;28;20462;-60
2022/07/14 09:04:34;;;;;;;3.37;1.47;;;23.80;99.10;;;;;;5073506;28;20448;-58
2022/07/14 09:07:01;;;;;;;2.70;1.20;;;24.00;97.50;;;;;;5073072;28;20443;-61
2022/07/14 09:09:31;;;;;;;2.57;1.10;;;24.20;95.50;;;;;;5073339;28;20443;-60
2022/07/14 09:12:00;;;;;;;8.33;1.60;;;24.10;95.60;;;;;;5073075;28;20531;-60
2022/07/14 09:14:29;;;;;;;4.37;1.40;;;24.20;94.50;;;;;;5073305;28;20447;-59
2022/07/14 09:17:14;;;;;;;1.70;1.10;;;24.10;95.30;;;;;;5073701;28;20538;-58
2022/07/14 09:20:03;;;;;;;1.67;1.20;;;24.20;95.90;;;;;;5073640;28;20974;-59
2022/07/14 09:22:32;;;;;;;2.00;1.10;;;24.40;95.00;;;;;;5073452;28;20956;-57
2022/07/14 09:24:58;;;;;;;3.10;1.63;;;24.50;94.70;;;;;;5073487;28;20872;-55
2022/07/14 09:27:26;;;;;;;7.90;2.00;;;24.40;94.60;;;;;;5073426;28;20898;-54
2022/07/14 09:29:55;;;;;;;4.47;1.10;;;24.30;91.50;;;;;;5072345;28;20457;-60
2022/07/14 09:32:42;;;;;;;3.90;1.27;;;24.50;92.00;;;;;;5073198;28;20447;-54
2022/07/14 09:35:11;;;;;;;3.70;1.03;;;24.70;91.80;;;;;;5073533;28;20458;-58
2022/07/14 09:37:38;;;;;;;4.13;1.10;;;24.80;92.80;;;;;;5073344;28;20726;-59
2022/07/14 09:40:07;;;;;;;2.50;1.20;;;24.50;92.30;;;;;;5073271;28;20823;-58
2022/07/14 09:42:57;;;;;;;4.87;1.23;;;23.80;92.90;;;;;;5073172;28;20443;-59
2022/07/14 09:45:27;;;;;;;4.47;1.50;;;23.20;93.50;;;;;;5073113;28;20964;-59
2022/07/14 09:47:59;;;;;;;3.53;1.43;;;23.40;94.30;;;;;;5073240;28;20455;-59
2022/07/14 09:50:44;;;;;;;3.13;1.10;;;23.60;94.60;;;;;;5073179;28;20455;-60
2022/07/14 09:53:13;;;;;;;3.43;0.90;;;24.10;91.20;;;;;;5073005;28;20457;-60
2022/07/14 09:55:44;;;;;;;5.53;1.30;;;24.50;87.70;;;;;;5073382;28;20543;-60
2022/07/14 09:58:11;;;;;;;1.77;0.93;;;24.40;89.30;;;;;;5072758;28;20475;-60
2022/07/14 10:00:38;;;;;;;2.17;0.80;;;24.70;88.50;;;;;;5072799;28;20939;-56
2022/07/14 10:03:05;;;;;;;3.23;1.07;;;25.00;85.80;;;;;;5072852;28;20457;-59
2022/07/14 10:05:33;;;;;;;2.80;1.20;;;24.60;82.50;;;;;;5072851;28;20538;-57
2022/07/14 10:08:03;;;;;;;1.63;1.00;;;24.20;87.00;;;;;;5071890;28;20806;-62
2022/07/14 10:10:34;;;;;;;3.10;1.43;;;24.40;86.40;;;;;;5072635;28;20486;-61
2022/07/14 10:13:03;;;;;;;2.27;1.07;;;24.50;89.60;;;;;;5072888;28;20444;-57
2022/07/14 10:15:30;;;;;;;2.90;1.70;;;24.50;86.70;;;;;;5072646;28;20538;-59
2022/07/14 10:18:00;;;;;;;1.90;1.20;;;24.90;86.50;;;;;;5072784;28;20448;-58
2022/07/14 10:20:28;;;;;;;1.30;1.00;;;24.80;83.90;;;;;;5072730;28;20482;-57
2022/07/14 10:22:55;;;;;;;7.50;1.47;;;24.40;84.10;;;;;;5072606;28;20489;-56
2022/07/14 10:25:24;;;;;;;3.93;1.00;;;24.50;83.30;;;;;;5072025;28;20788;-59
2022/07/14 10:27:52;;;;;;;2.17;1.10;;;24.30;85.00;;;;;;5072612;28;20450;-60
2022/07/14 10:30:29;;;;;;;3.30;0.90;;;24.80;81.70;;;;;;5072152;28;20455;-58
2022/07/14 10:33:01;;;;;;;2.13;0.87;;;25.10;74.90;;;;;;5070600;28;20475;-54
2022/07/14 10:35:42;;;;;;;1.47;0.80;;;25.50;77.40;;;;;;5071766;28;20443;-57
2022/07/14 10:38:41;;;;;;;2.00;0.90;;;25.70;75.40;;;;;;5072105;28;20448;-60
2022/07/14 10:41:19;;;;;;;1.83;1.20;;;25.80;76.30;;;;;;5060537;28;20448;-61
2022/07/14 10:44:05;;;;;;;3.90;1.17;;;26.00;76.30;;;;;;5076173;28;20435;-60
2022/07/14 10:46:36;;;;;;;1.20;1.10;;;26.00;75.70;;;;;;5076573;28;20482;-61
2022/07/14 10:49:05;;;;;;;2.07;0.93;;;26.30;75.90;;;;;;5076548;28;20487;-61
2022/07/14 10:51:32;;;;;;;2.20;1.23;;;26.40;72.70;;;;;;5076251;28;20998;-60
2022/07/14 10:54:08;;;;;;;3.63;1.10;;;25.80;70.80;;;;;;5076085;28;20939;-61
2022/07/14 10:56:36;;;;;;;3.30;1.30;;;25.70;73.50;;;;;;5076274;28;20478;-62
2022/07/14 10:59:35;;;;;;;4.67;1.40;;;25.90;73.80;;;;;;5076273;28;20839;-61
2022/07/14 11:02:33;;;;;;;3.73;1.27;;;25.90;74.30;;;;;;5076201;28;20470;-61
2022/07/14 11:05:07;;;;;;;2.27;0.93;;;26.10;74.40;;;;;;5076288;28;20455;-61
2022/07/14 11:07:40;;;;;;;3.13;1.33;;;25.80;73.60;;;;;;5076151;28;20447;-61
2022/07/14 11:10:45;;;;;;;4.43;1.80;;;25.50;75.10;;;;;;5076249;28;20451;-60
2022/07/14 11:13:16;;;;;;;2.77;1.00;;;25.70;75.10;;;;;;5075221;28;20478;-62
2022/07/14 11:15:45;;;;;;;2.80;1.10;;;25.20;75.60;;;;;;5075952;28;20855;-61
2022/07/14 11:18:29;;;;;;;2.23;1.30;;;25.10;74.10;;;;;;5076025;28;20457;-55
2022/07/14 11:20:59;;;;;;;2.47;0.80;;;25.30;73.10;;;;;;5075060;28;20979;-57
2022/07/14 11:23:28;;;;;;;3.10;1.17;;;25.70;71.80;;;;;;5075735;28;20447;-58
2022/07/14 11:25:55;;;;;;;2.23;1.30;;;25.80;71.00;;;;;;5072864;28;20443;-58
2022/07/14 11:28:42;;;;;;;1.53;1.10;;;25.70;72.60;;;;;;5075452;28;20559;-60
2022/07/14 11:31:11;;;;;;;2.40;1.03;;;26.00;72.00;;;;;;5075498;28;20826;-60
2022/07/14 11:36:17;;;;;;;2.43;0.90;;;26.40;71.00;;;;;;5075765;28;20454;-60
2022/07/14 11:36:25;;;;;;;5.40;1.40;;;26.60;69.80;;;;;;5075781;28;20955;-60
2022/07/14 11:39:21;;;;;;;1.77;0.80;;;26.20;68.90;;;;;;5075454;28;20459;-61
2022/07/14 11:41:50;;;;;;;2.23;1.40;;;26.30;68.70;;;;;;5075429;28;20452;-60
2022/07/14 11:44:45;;;;;;;1.40;1.00;;;26.40;67.60;;;;;;5075436;28;20447;-60
2022/07/14 11:47:15;;;;;;;2.90;1.20;;;25.90;69.00;;;;;;5075525;28;20447;-61
2022/07/14 11:49:43;;;;;;;1.40;1.23;;;26.00;67.50;;;;;;5075161;28;20454;-61
2022/07/14 11:52:10;;;;;;;4.60;1.20;;;25.70;70.00;;;;;;5073981;28;20814;-60
2022/07/14 11:54:36;;;;;;;1.43;0.80;;;25.70;70.70;;;;;;5075456;28;20456;-60
2022/07/14 11:57:06;;;;;;;1.97;1.00;;;26.10;70.90;;;;;;5075091;28;20471;-61
2022/07/14 11:59:33;;;;;;;2.37;1.17;;;26.60;69.10;;;;;;5075249;28;20520;-62
2022/07/14 12:02:08;;;;;;;1.80;1.10;;;26.40;68.40;;;;;;5075124;28;21037;-60
2022/07/14 12:04:36;;;;;;;3.00;1.10;;;26.70;66.30;;;;;;5074475;28;20905;-60
2022/07/14 12:07:02;;;;;;;1.87;0.87;;;26.80;65.50;;;;;;5074765;28;20459;-59
2022/07/14 12:09:30;;;;;;;3.80;1.27;;;27.10;64.70;;;;;;5074901;28;21000;-61
2022/07/14 12:11:57;;;;;;;1.63;0.90;;;27.30;61.30;;;;;;5074980;28;20447;-61
2022/07/14 12:14:24;;;;;;;1.75;0.90;;;27.40;62.80;;;;;;5074706;28;20534;-60
2022/07/14 12:16:51;;;;;;;2.00;0.93;;;27.50;59.30;;;;;;5074584;28;20193;-60
2022/07/14 12:19:28;;;;;;;2.50;0.97;;;27.40;60.50;;;;;;5074623;28;20818;-60
2022/07/14 12:21:59;;;;;;;1.02;0.88;;;27.00;60.70;;;;;;5074697;28;20512;-57
2022/07/14 12:24:26;;;;;;;1.70;0.90;;;27.40;60.90;;;;;;5073911;28;20454;-60
2022/07/14 12:26:57;;;;;;;2.00;1.00;;;27.60;60.70;;;;;;5074227;28;20486;-68
2022/07/14 12:29:23;;;;;;;1.63;0.80;;;27.60;62.00;;;;;;5074511;28;20656;-70
2022/07/14 12:31:51;;;;;;;2.77;0.80;;;27.80;60.20;;;;;;5074489;28;20542;-60
2022/07/14 12:34:18;;;;;;;3.17;1.60;;;26.60;61.00;;;;;;5074478;28;20451;-59
2022/07/14 12:36:46;;;;;;;2.97;0.80;;;26.50;59.70;;;;;;5074620;28;20448;-61
2022/07/14 12:39:14;;;;;;;2.20;1.03;;;26.80;59.90;;;;;;5074267;28;20458;-61
2022/07/14 12:41:43;;;;;;;2.30;0.70;;;27.20;59.50;;;;;;5073693;28;20931;-61
2022/07/14 12:44:10;;;;;;;1.77;0.90;;;27.40;59.40;;;;;;5074356;28;20911;-61
2022/07/14 12:46:36;;;;;;;1.70;0.60;;;27.60;57.30;;;;;;5074167;28;20448;-61
2022/07/14 12:49:05;;;;;;;1.73;0.80;;;27.70;57.60;;;;;;5074198;28;20543;-61
2022/07/14 12:51:37;;;;;;;1.27;0.70;;;28.00;57.10;;;;;;5074229;28;20448;-61
2022/07/14 12:54:07;;;;;;;0.97;0.70;;;28.10;55.40;;;;;;5074227;28;20451;-61
2022/07/14 12:56:37;;;;;;;2.20;0.83;;;28.20;56.50;;;;;;5073845;28;20621;-61
2022/07/14 12:59:05;;;;;;;1.50;0.90;;;28.30;57.50;;;;;;5073864;28;20881;-61
2022/07/14 13:01:43;;;;;;;4.73;0.90;;;28.30;57.20;;;;;;5074027;28;20500;-61